sensor_id;sensor_type;location;lat;lon;timestamp;temperature;humidity
18317;DHT22;9284;52.298;21.164;2024-01-30T00:00:19;0.90;99.90
18317;DHT22;9284;52.298;21.164;2024-01-30T00:02:48;0.80;99.90
18317;DHT22;9284;52.298;21.164;2024-01-30T00:05:16;0.80;99.90
18317;DHT22;9284;52.298;21.164;2024-01-30T00:07:44;0.70;1.00
18317;DHT22;9284;52.298;21.164;2024-01-30T00:10:14;0.70;1.00
18317;DHT22;9284;52.298;21.164;2024-01-30T00:12:42;0.70;99.90
18317;DHT22;9284;52.298;21.164;2024-01-30T00:15:11;0.80;1.00
18317;DHT22;9284;52.298;21.164;2024-01-30T00:17:39;0.80;1.00
18317;DHT22;9284;52.298;21.164;2024-01-30T00:20:08;0.80;1.00
18317;DHT22;9284;52.298;21.164;2024-01-30T00:22:37;0.70;1.00
18317;DHT22;9284;52.298;21.164;2024-01-30T00:25:05;0.70;1.00
18317;DHT22;9284;52.298;21.164;2024-01-30T00:27:35;0.60;1.00
18317;DHT22;9284;52.298;21.164;2024-01-30T00:30:04;0.60;87.70
18317;DHT22;9284;52.298;21.164;2024-01-30T00:32:32;0.60;99.90
18317;DHT22;9284;52.298;21.164;2024-01-30T00:35:01;0.60;99.90
18317;DHT22;9284;52.298;21.164;2024-01-30T00:37:29;0.50;1.00
18317;DHT22;9284;52.298;21.164;2024-01-30T00:39:58;0.60;1.00
18317;DHT22;9284;52.298;21.164;2024-01-30T00:42:27;0.50;1.00
18317;DHT22;9284;52.298;21.164;2024-01-30T00:44:56;0.60;1.00
18317;DHT22;9284;52.298;21.164;2024-01-30T00:47:25;0.50;1.00
18317;DHT22;9284;52.298;21.164;2024-01-30T00:49:53;0.50;1.00
18317;DHT22;9284;52.298;21.164;2024-01-30T00:52:21;0.50;99.90
18317;DHT22;9284;52.298;21.164;2024-01-30T00:54:49;0.40;99.90
18317;DHT22;9284;52.298;21.164;2024-01-30T00:57:18;0.40;99.90
18317;DHT22;9284;52.298;21.164;2024-01-30T00:59:46;0.40;99.90
18317;DHT22;9284;52.298;21.164;2024-01-30T01:02:16;0.40;1.00
18317;DHT22;9284;52.298;21.164;2024-01-30T01:04:44;0.30;1.00
18317;DHT22;9284;52.298;21.164;2024-01-30T01:07:13;0.30;1.00
18317;DHT22;9284;52.298;21.164;2024-01-30T01:09:41;0.30;1.00
18317;DHT22;9284;52.298;21.164;2024-01-30T01:12:10;0.30;1.00
18317;DHT22;9284;52.298;21.164;2024-01-30T01:14:38;0.30;1.00
18317;DHT22;9284;52.298;21.164;2024-01-30T01:17:06;0.20;1.00
18317;DHT22;9284;52.298;21.164;2024-01-30T01:19:36;0.20;1.00
18317;DHT22;9284;52.298;21.164;2024-01-30T01:22:04;0.20;1.00
18317;DHT22;9284;52.298;21.164;2024-01-30T01:24:33;0.10;99.90
18317;DHT22;9284;52.298;21.164;2024-01-30T01:27:01;0.10;98.00
18317;DHT22;9284;52.298;21.164;2024-01-30T01:29:29;0.00;99.90
18317;DHT22;9284;52.298;21.164;2024-01-30T01:31:58;0.00;99.90
18317;DHT22;9284;52.298;21.164;2024-01-30T01:34:26;-0.10;99.90
18317;DHT22;9284;52.298;21.164;2024-01-30T01:36:58;-0.20;1.00
18317;DHT22;9284;52.298;21.164;2024-01-30T01:39:27;-0.10;1.00
18317;DHT22;9284;52.298;21.164;2024-01-30T01:41:55;-0.20;1.00
18317;DHT22;9284;52.298;21.164;2024-01-30T01:44:23;-0.30;99.90
18317;DHT22;9284;52.298;21.164;2024-01-30T01:46:52;-0.20;99.90
18317;DHT22;9284;52.298;21.164;2024-01-30T01:49:23;-0.30;99.90
18317;DHT22;9284;52.298;21.164;2024-01-30T01:51:54;-0.30;1.00
18317;DHT22;9284;52.298;21.164;2024-01-30T01:54:25;-0.30;1.00
18317;DHT22;9284;52.298;21.164;2024-01-30T01:56:54;-0.20;1.00
18317;DHT22;9284;52.298;21.164;2024-01-30T01:59:24;-0.30;1.00
18317;DHT22;9284;52.298;21.164;2024-01-30T02:01:54;-0.10;1.00
18317;DHT22;9284;52.298;21.164;2024-01-30T02:04:23;-0.30;99.90
18317;DHT22;9284;52.298;21.164;2024-01-30T02:06:52;-0.30;99.90
18317;DHT22;9284;52.298;21.164;2024-01-30T02:09:20;-0.20;99.90
18317;DHT22;9284;52.298;21.164;2024-01-30T02:11:50;-0.40;1.00
18317;DHT22;9284;52.298;21.164;2024-01-30T02:14:18;-0.40;1.00
18317;DHT22;9284;52.298;21.164;2024-01-30T02:16:47;-0.40;1.00
18317;DHT22;9284;52.298;21.164;2024-01-30T02:19:15;-0.50;1.00
18317;DHT22;9284;52.298;21.164;2024-01-30T02:21:45;-0.50;1.00
18317;DHT22;9284;52.298;21.164;2024-01-30T02:24:14;-0.50;1.00
18317;DHT22;9284;52.298;21.164;2024-01-30T02:26:42;-0.60;1.00
18317;DHT22;9284;52.298;21.164;2024-01-30T02:29:11;-0.50;1.00
18317;DHT22;9284;52.298;21.164;2024-01-30T02:31:40;-0.50;1.00
18317;DHT22;9284;52.298;21.164;2024-01-30T02:34:08;-0.50;1.00
18317;DHT22;9284;52.298;21.164;2024-01-30T02:36:37;-0.50;1.00
18317;DHT22;9284;52.298;21.164;2024-01-30T02:39:06;-0.50;1.00
18317;DHT22;9284;52.298;21.164;2024-01-30T02:41:34;-0.50;1.00
18317;DHT22;9284;52.298;21.164;2024-01-30T02:44:03;-0.60;1.00
18317;DHT22;9284;52.298;21.164;2024-01-30T02:46:32;-0.50;1.00
18317;DHT22;9284;52.298;21.164;2024-01-30T02:49:00;-0.50;1.00
18317;DHT22;9284;52.298;21.164;2024-01-30T02:51:29;-0.50;1.00
18317;DHT22;9284;52.298;21.164;2024-01-30T02:53:57;-0.60;1.00
18317;DHT22;9284;52.298;21.164;2024-01-30T02:56:27;-0.50;1.00
18317;DHT22;9284;52.298;21.164;2024-01-30T02:58:55;-0.50;1.00
18317;DHT22;9284;52.298;21.164;2024-01-30T03:01:23;-0.50;1.00
18317;DHT22;9284;52.298;21.164;2024-01-30T03:03:52;-0.50;1.00
18317;DHT22;9284;52.298;21.164;2024-01-30T03:06:20;-0.30;30.50
18317;DHT22;9284;52.298;21.164;2024-01-30T03:08:49;-0.40;1.00
18317;DHT22;9284;52.298;21.164;2024-01-30T03:11:18;-0.40;1.00
18317;DHT22;9284;52.298;21.164;2024-01-30T03:13:47;-0.50;1.00
18317;DHT22;9284;52.298;21.164;2024-01-30T03:16:15;-0.60;1.00
18317;DHT22;9284;52.298;21.164;2024-01-30T03:18:44;-0.70;1.00
18317;DHT22;9284;52.298;21.164;2024-01-30T03:21:12;-0.70;1.00
18317;DHT22;9284;52.298;21.164;2024-01-30T03:23:41;-0.70;1.00
18317;DHT22;9284;52.298;21.164;2024-01-30T03:26:09;-0.70;1.00
18317;DHT22;9284;52.298;21.164;2024-01-30T03:28:39;-0.70;1.00
18317;DHT22;9284;52.298;21.164;2024-01-30T03:31:09;-0.70;15.20
18317;DHT22;9284;52.298;21.164;2024-01-30T03:33:37;-0.70;38.30
18317;DHT22;9284;52.298;21.164;2024-01-30T03:36:07;-0.70;67.50
18317;DHT22;9284;52.298;21.164;2024-01-30T03:38:35;-0.70;99.90
18317;DHT22;9284;52.298;21.164;2024-01-30T03:41:07;-0.60;99.90
18317;DHT22;9284;52.298;21.164;2024-01-30T03:43:36;-0.70;99.90
18317;DHT22;9284;52.298;21.164;2024-01-30T03:46:04;-0.60;99.90
18317;DHT22;9284;52.298;21.164;2024-01-30T03:48:34;-0.70;99.90
18317;DHT22;9284;52.298;21.164;2024-01-30T03:51:02;-0.70;99.90
18317;DHT22;9284;52.298;21.164;2024-01-30T03:53:31;-0.70;71.60
18317;DHT22;9284;52.298;21.164;2024-01-30T03:55:59;-0.70;92.50
18317;DHT22;9284;52.298;21.164;2024-01-30T03:58:27;-0.70;70.10
18317;DHT22;9284;52.298;21.164;2024-01-30T04:00:55;-0.80;99.90
18317;DHT22;9284;52.298;21.164;2024-01-30T04:03:24;-0.80;99.90
18317;DHT22;9284;52.298;21.164;2024-01-30T04:05:54;-0.80;99.90
18317;DHT22;9284;52.298;21.164;2024-01-30T04:08:22;-0.80;99.90
18317;DHT22;9284;52.298;21.164;2024-01-30T04:10:50;-0.80;99.90
18317;DHT22;9284;52.298;21.164;2024-01-30T04:13:19;-0.90;99.90
18317;DHT22;9284;52.298;21.164;2024-01-30T04:15:47;-0.70;99.90
18317;DHT22;9284;52.298;21.164;2024-01-30T04:18:15;-0.70;99.90
18317;DHT22;9284;52.298;21.164;2024-01-30T04:20:45;-0.60;99.90
18317;DHT22;9284;52.298;21.164;2024-01-30T04:23:15;-0.70;99.90
18317;DHT22;9284;52.298;21.164;2024-01-30T04:25:43;-0.70;99.90
18317;DHT22;9284;52.298;21.164;2024-01-30T04:28:11;-0.60;99.90
18317;DHT22;9284;52.298;21.164;2024-01-30T04:30:40;-0.60;98.30
18317;DHT22;9284;52.298;21.164;2024-01-30T04:33:08;-0.70;6.90
18317;DHT22;9284;52.298;21.164;2024-01-30T04:35:36;-0.60;93.00
18317;DHT22;9284;52.298;21.164;2024-01-30T04:38:05;-0.60;1.00
18317;DHT22;9284;52.298;21.164;2024-01-30T04:40:34;-0.60;1.00
18317;DHT22;9284;52.298;21.164;2024-01-30T04:43:03;-0.60;1.00
18317;DHT22;9284;52.298;21.164;2024-01-30T04:45:31;-0.50;1.00
18317;DHT22;9284;52.298;21.164;2024-01-30T04:47:59;-0.50;1.00
18317;DHT22;9284;52.298;21.164;2024-01-30T04:50:27;-0.50;1.00
18317;DHT22;9284;52.298;21.164;2024-01-30T04:52:56;-0.50;1.00
18317;DHT22;9284;52.298;21.164;2024-01-30T04:55:25;-0.50;1.00
18317;DHT22;9284;52.298;21.164;2024-01-30T04:57:55;-0.50;1.00
18317;DHT22;9284;52.298;21.164;2024-01-30T05:00:23;-0.50;1.00
18317;DHT22;9284;52.298;21.164;2024-01-30T05:02:51;-0.50;99.90
18317;DHT22;9284;52.298;21.164;2024-01-30T05:05:19;-0.50;1.00
18317;DHT22;9284;52.298;21.164;2024-01-30T05:07:48;-0.40;99.90
18317;DHT22;9284;52.298;21.164;2024-01-30T05:10:17;-0.40;99.90
18317;DHT22;9284;52.298;21.164;2024-01-30T05:12:45;-0.30;99.90
18317;DHT22;9284;52.298;21.164;2024-01-30T05:15:15;-0.40;99.90
18317;DHT22;9284;52.298;21.164;2024-01-30T05:17:44;-0.40;99.90
18317;DHT22;9284;52.298;21.164;2024-01-30T05:20:12;-0.40;99.90
18317;DHT22;9284;52.298;21.164;2024-01-30T05:22:41;-0.40;1.00
18317;DHT22;9284;52.298;21.164;2024-01-30T05:25:12;-0.40;1.00
18317;DHT22;9284;52.298;21.164;2024-01-30T05:27:41;-0.50;1.00
18317;DHT22;9284;52.298;21.164;2024-01-30T05:30:10;-0.40;1.00
18317;DHT22;9284;52.298;21.164;2024-01-30T05:32:40;-0.50;29.80
18317;DHT22;9284;52.298;21.164;2024-01-30T05:35:08;-0.50;8.80
18317;DHT22;9284;52.298;21.164;2024-01-30T05:37:36;-0.40;54.60
18317;DHT22;9284;52.298;21.164;2024-01-30T05:40:06;-0.50;99.90
18317;DHT22;9284;52.298;21.164;2024-01-30T05:42:36;-0.50;90.00
18317;DHT22;9284;52.298;21.164;2024-01-30T05:45:05;-0.50;99.90
18317;DHT22;9284;52.298;21.164;2024-01-30T05:47:33;-0.50;99.90
18317;DHT22;9284;52.298;21.164;2024-01-30T05:50:04;-0.50;1.00
18317;DHT22;9284;52.298;21.164;2024-01-30T05:52:33;-0.50;1.00
18317;DHT22;9284;52.298;21.164;2024-01-30T05:55:02;-0.50;1.00
18317;DHT22;9284;52.298;21.164;2024-01-30T05:57:31;-0.50;1.00
18317;DHT22;9284;52.298;21.164;2024-01-30T05:59:59;-0.40;1.00
18317;DHT22;9284;52.298;21.164;2024-01-30T06:02:30;-0.50;1.00
18317;DHT22;9284;52.298;21.164;2024-01-30T06:04:58;-0.50;1.00
18317;DHT22;9284;52.298;21.164;2024-01-30T06:07:28;-0.50;1.00
18317;DHT22;9284;52.298;21.164;2024-01-30T06:10:02;-0.50;1.00
18317;DHT22;9284;52.298;21.164;2024-01-30T06:12:31;-0.50;1.00
18317;DHT22;9284;52.298;21.164;2024-01-30T06:14:59;-0.50;1.00
18317;DHT22;9284;52.298;21.164;2024-01-30T06:17:27;-0.60;1.00
18317;DHT22;9284;52.298;21.164;2024-01-30T06:19:56;-0.60;1.00
18317;DHT22;9284;52.298;21.164;2024-01-30T06:22:24;-0.50;1.00
18317;DHT22;9284;52.298;21.164;2024-01-30T06:24:54;-0.50;1.00
18317;DHT22;9284;52.298;21.164;2024-01-30T06:27:22;-0.40;1.00
18317;DHT22;9284;52.298;21.164;2024-01-30T06:29:50;-0.40;99.90
18317;DHT22;9284;52.298;21.164;2024-01-30T06:32:18;-0.40;99.90
18317;DHT22;9284;52.298;21.164;2024-01-30T06:34:47;-0.40;99.90
18317;DHT22;9284;52.298;21.164;2024-01-30T06:37:15;-0.30;93.70
18317;DHT22;9284;52.298;21.164;2024-01-30T06:39:43;-0.30;51.60
18317;DHT22;9284;52.298;21.164;2024-01-30T06:42:13;-0.30;1.00
18317;DHT22;9284;52.298;21.164;2024-01-30T06:44:41;-0.30;1.00
18317;DHT22;9284;52.298;21.164;2024-01-30T06:47:10;-0.30;1.00
18317;DHT22;9284;52.298;21.164;2024-01-30T06:49:38;-0.30;1.00
18317;DHT22;9284;52.298;21.164;2024-01-30T06:52:09;-0.30;1.00
18317;DHT22;9284;52.298;21.164;2024-01-30T06:54:37;-0.10;99.90
18317;DHT22;9284;52.298;21.164;2024-01-30T06:57:07;-0.10;1.00
18317;DHT22;9284;52.298;21.164;2024-01-30T06:59:40;-0.10;1.00
18317;DHT22;9284;52.298;21.164;2024-01-30T07:02:11;0.00;99.90
18317;DHT22;9284;52.298;21.164;2024-01-30T07:04:39;0.00;99.90
18317;DHT22;9284;52.298;21.164;2024-01-30T07:07:13;0.00;99.90
18317;DHT22;9284;52.298;21.164;2024-01-30T07:09:42;0.00;99.90
18317;DHT22;9284;52.298;21.164;2024-01-30T07:12:11;0.20;99.90
18317;DHT22;9284;52.298;21.164;2024-01-30T07:14:41;0.20;1.00
18317;DHT22;9284;52.298;21.164;2024-01-30T07:17:09;0.20;99.90
18317;DHT22;9284;52.298;21.164;2024-01-30T07:19:38;0.20;99.90
18317;DHT22;9284;52.298;21.164;2024-01-30T07:22:06;0.20;99.90
18317;DHT22;9284;52.298;21.164;2024-01-30T07:24:35;0.30;99.90
18317;DHT22;9284;52.298;21.164;2024-01-30T07:27:03;0.30;1.00
18317;DHT22;9284;52.298;21.164;2024-01-30T07:29:32;0.40;1.00
18317;DHT22;9284;52.298;21.164;2024-01-30T07:32:02;0.50;1.00
18317;DHT22;9284;52.298;21.164;2024-01-30T07:34:31;0.60;99.90
18317;DHT22;9284;52.298;21.164;2024-01-30T07:37:07;0.60;99.90
18317;DHT22;9284;52.298;21.164;2024-01-30T07:39:36;0.70;30.60
18317;DHT22;9284;52.298;21.164;2024-01-30T07:42:05;0.80;1.00
18317;DHT22;9284;52.298;21.164;2024-01-30T07:44:34;0.90;1.00
18317;DHT22;9284;52.298;21.164;2024-01-30T07:47:05;1.10;99.90
18317;DHT22;9284;52.298;21.164;2024-01-30T07:49:34;1.50;1.00
18317;DHT22;9284;52.298;21.164;2024-01-30T07:52:03;1.80;99.90
18317;DHT22;9284;52.298;21.164;2024-01-30T07:54:32;1.90;1.00
18317;DHT22;9284;52.298;21.164;2024-01-30T07:57:01;1.80;99.90
18317;DHT22;9284;52.298;21.164;2024-01-30T07:59:29;1.80;9.70
18317;DHT22;9284;52.298;21.164;2024-01-30T08:01:57;1.90;4.50
18317;DHT22;9284;52.298;21.164;2024-01-30T08:04:27;1.90;1.00
18317;DHT22;9284;52.298;21.164;2024-01-30T08:06:55;1.70;1.00
18317;DHT22;9284;52.298;21.164;2024-01-30T08:09:24;1.70;1.00
18317;DHT22;9284;52.298;21.164;2024-01-30T08:11:52;1.90;1.00
18317;DHT22;9284;52.298;21.164;2024-01-30T08:14:21;1.80;1.00
18317;DHT22;9284;52.298;21.164;2024-01-30T08:16:49;1.90;1.00
18317;DHT22;9284;52.298;21.164;2024-01-30T08:19:17;1.90;1.00
18317;DHT22;9284;52.298;21.164;2024-01-30T08:21:47;2.10;1.00
18317;DHT22;9284;52.298;21.164;2024-01-30T08:24:15;2.00;1.00
18317;DHT22;9284;52.298;21.164;2024-01-30T08:26:44;1.90;1.00
18317;DHT22;9284;52.298;21.164;2024-01-30T08:29:12;2.00;1.00
18317;DHT22;9284;52.298;21.164;2024-01-30T08:31:41;2.00;1.00
18317;DHT22;9284;52.298;21.164;2024-01-30T08:34:09;2.10;99.90
18317;DHT22;9284;52.298;21.164;2024-01-30T08:36:38;2.20;99.90
18317;DHT22;9284;52.298;21.164;2024-01-30T08:39:07;2.20;99.90
18317;DHT22;9284;52.298;21.164;2024-01-30T08:41:36;2.20;99.90
18317;DHT22;9284;52.298;21.164;2024-01-30T08:44:04;2.40;99.90
18317;DHT22;9284;52.298;21.164;2024-01-30T08:46:33;2.40;99.90
18317;DHT22;9284;52.298;21.164;2024-01-30T08:49:01;2.40;91.60
18317;DHT22;9284;52.298;21.164;2024-01-30T08:51:31;2.40;35.60
18317;DHT22;9284;52.298;21.164;2024-01-30T08:53:59;2.50;1.00
18317;DHT22;9284;52.298;21.164;2024-01-30T08:56:29;2.60;1.00
18317;DHT22;9284;52.298;21.164;2024-01-30T08:58:58;2.70;1.00
18317;DHT22;9284;52.298;21.164;2024-01-30T09:01:26;2.80;1.00
18317;DHT22;9284;52.298;21.164;2024-01-30T09:03:54;2.80;1.00
18317;DHT22;9284;52.298;21.164;2024-01-30T09:06:23;3.00;1.00
18317;DHT22;9284;52.298;21.164;2024-01-30T09:08:53;3.10;1.00
18317;DHT22;9284;52.298;21.164;2024-01-30T09:11:22;3.20;1.00
18317;DHT22;9284;52.298;21.164;2024-01-30T09:13:51;3.20;1.00
18317;DHT22;9284;52.298;21.164;2024-01-30T09:16:20;3.30;99.90
18317;DHT22;9284;52.298;21.164;2024-01-30T09:18:48;3.40;99.90
18317;DHT22;9284;52.298;21.164;2024-01-30T09:21:16;3.50;99.90
18317;DHT22;9284;52.298;21.164;2024-01-30T09:23:45;3.60;99.90
18317;DHT22;9284;52.298;21.164;2024-01-30T09:26:13;3.60;99.90
18317;DHT22;9284;52.298;21.164;2024-01-30T09:28:41;3.80;99.90
18317;DHT22;9284;52.298;21.164;2024-01-30T09:31:11;3.80;99.90
18317;DHT22;9284;52.298;21.164;2024-01-30T09:33:40;3.90;99.90
18317;DHT22;9284;52.298;21.164;2024-01-30T09:36:09;4.00;99.90
18317;DHT22;9284;52.298;21.164;2024-01-30T09:38:37;4.00;99.90
18317;DHT22;9284;52.298;21.164;2024-01-30T09:41:08;4.00;99.90
18317;DHT22;9284;52.298;21.164;2024-01-30T09:43:38;4.10;90.80
18317;DHT22;9284;52.298;21.164;2024-01-30T09:46:09;4.20;52.20
18317;DHT22;9284;52.298;21.164;2024-01-30T09:48:41;4.30;1.00
18317;DHT22;9284;52.298;21.164;2024-01-30T09:51:11;4.50;1.00
18317;DHT22;9284;52.298;21.164;2024-01-30T09:53:41;4.50;1.00
18317;DHT22;9284;52.298;21.164;2024-01-30T09:56:10;4.40;1.00
18317;DHT22;9284;52.298;21.164;2024-01-30T09:58:39;4.50;1.00
18317;DHT22;9284;52.298;21.164;2024-01-30T10:01:07;4.60;1.00
18317;DHT22;9284;52.298;21.164;2024-01-30T10:03:36;4.80;1.00
18317;DHT22;9284;52.298;21.164;2024-01-30T10:06:07;4.70;1.00
18317;DHT22;9284;52.298;21.164;2024-01-30T10:08:36;4.80;1.00
18317;DHT22;9284;52.298;21.164;2024-01-30T10:11:04;4.90;1.00
18317;DHT22;9284;52.298;21.164;2024-01-30T10:13:33;5.00;1.00
18317;DHT22;9284;52.298;21.164;2024-01-30T10:16:02;5.10;1.00
18317;DHT22;9284;52.298;21.164;2024-01-30T10:18:33;5.10;1.00
18317;DHT22;9284;52.298;21.164;2024-01-30T10:21:01;5.00;1.00
18317;DHT22;9284;52.298;21.164;2024-01-30T10:23:31;5.10;1.00
18317;DHT22;9284;52.298;21.164;2024-01-30T10:26:02;5.20;1.00
18317;DHT22;9284;52.298;21.164;2024-01-30T10:28:31;5.20;1.00
18317;DHT22;9284;52.298;21.164;2024-01-30T10:31:00;5.30;1.00
18317;DHT22;9284;52.298;21.164;2024-01-30T10:33:33;5.50;1.00
18317;DHT22;9284;52.298;21.164;2024-01-30T10:36:03;5.50;1.00
18317;DHT22;9284;52.298;21.164;2024-01-30T10:38:33;5.60;1.00
18317;DHT22;9284;52.298;21.164;2024-01-30T10:41:02;5.70;1.00
18317;DHT22;9284;52.298;21.164;2024-01-30T10:43:32;5.80;1.00
18317;DHT22;9284;52.298;21.164;2024-01-30T10:46:08;5.80;1.00
18317;DHT22;9284;52.298;21.164;2024-01-30T10:48:42;5.90;1.00
18317;DHT22;9284;52.298;21.164;2024-01-30T10:51:13;5.80;1.00
18317;DHT22;9284;52.298;21.164;2024-01-30T10:53:44;6.10;99.90
18317;DHT22;9284;52.298;21.164;2024-01-30T10:56:16;6.10;99.90
18317;DHT22;9284;52.298;21.164;2024-01-30T10:58:45;6.20;99.90
18317;DHT22;9284;52.298;21.164;2024-01-30T11:01:14;6.20;99.90
18317;DHT22;9284;52.298;21.164;2024-01-30T11:03:43;6.30;99.90
18317;DHT22;9284;52.298;21.164;2024-01-30T11:06:11;6.30;99.90
18317;DHT22;9284;52.298;21.164;2024-01-30T11:08:42;6.30;99.90
18317;DHT22;9284;52.298;21.164;2024-01-30T11:11:11;6.30;99.90
18317;DHT22;9284;52.298;21.164;2024-01-30T11:13:44;6.30;99.90
18317;DHT22;9284;52.298;21.164;2024-01-30T11:16:12;6.60;99.90
18317;DHT22;9284;52.298;21.164;2024-01-30T11:18:41;6.70;99.90
18317;DHT22;9284;52.298;21.164;2024-01-30T11:21:13;6.70;99.90
18317;DHT22;9284;52.298;21.164;2024-01-30T11:23:43;6.70;99.90
18317;DHT22;9284;52.298;21.164;2024-01-30T11:26:12;6.80;99.90
18317;DHT22;9284;52.298;21.164;2024-01-30T11:28:40;7.30;99.90
18317;DHT22;9284;52.298;21.164;2024-01-30T11:31:08;7.60;99.90
18317;DHT22;9284;52.298;21.164;2024-01-30T11:33:39;7.80;99.90
18317;DHT22;9284;52.298;21.164;2024-01-30T11:36:08;7.90;99.90
18317;DHT22;9284;52.298;21.164;2024-01-30T11:38:37;8.00;99.90
18317;DHT22;9284;52.298;21.164;2024-01-30T11:41:09;7.90;99.90
18317;DHT22;9284;52.298;21.164;2024-01-30T11:43:37;7.50;99.90
18317;DHT22;9284;52.298;21.164;2024-01-30T11:46:06;7.40;99.90
18317;DHT22;9284;52.298;21.164;2024-01-30T11:48:35;7.20;99.90
18317;DHT22;9284;52.298;21.164;2024-01-30T11:51:04;7.00;99.90
18317;DHT22;9284;52.298;21.164;2024-01-30T11:53:32;7.10;99.90
18317;DHT22;9284;52.298;21.164;2024-01-30T11:56:00;7.10;99.90
18317;DHT22;9284;52.298;21.164;2024-01-30T11:58:31;7.10;99.90
18317;DHT22;9284;52.298;21.164;2024-01-30T12:00:59;7.00;99.90
18317;DHT22;9284;52.298;21.164;2024-01-30T12:03:28;6.90;99.90
18317;DHT22;9284;52.298;21.164;2024-01-30T12:05:57;7.00;99.90
18317;DHT22;9284;52.298;21.164;2024-01-30T12:08:26;7.20;99.90
18317;DHT22;9284;52.298;21.164;2024-01-30T12:10:56;7.20;99.90
18317;DHT22;9284;52.298;21.164;2024-01-30T12:13:26;7.20;99.90
18317;DHT22;9284;52.298;21.164;2024-01-30T12:16:01;7.10;99.90
18317;DHT22;9284;52.298;21.164;2024-01-30T12:18:29;7.20;99.90
18317;DHT22;9284;52.298;21.164;2024-01-30T12:20:58;7.20;99.90
18317;DHT22;9284;52.298;21.164;2024-01-30T12:23:27;7.20;99.90
18317;DHT22;9284;52.298;21.164;2024-01-30T12:25:57;7.20;99.90
18317;DHT22;9284;52.298;21.164;2024-01-30T12:28:26;7.20;99.90
18317;DHT22;9284;52.298;21.164;2024-01-30T12:30:55;7.30;99.90
18317;DHT22;9284;52.298;21.164;2024-01-30T12:33:27;7.40;99.90
18317;DHT22;9284;52.298;21.164;2024-01-30T12:35:56;7.30;99.90
18317;DHT22;9284;52.298;21.164;2024-01-30T12:38:30;7.30;99.90
18317;DHT22;9284;52.298;21.164;2024-01-30T12:40:59;7.20;99.90
18317;DHT22;9284;52.298;21.164;2024-01-30T12:43:27;7.20;99.90
18317;DHT22;9284;52.298;21.164;2024-01-30T12:46:05;7.20;99.90
18317;DHT22;9284;52.298;21.164;2024-01-30T12:48:35;7.10;99.90
18317;DHT22;9284;52.298;21.164;2024-01-30T12:51:04;7.10;99.90
18317;DHT22;9284;52.298;21.164;2024-01-30T12:53:32;7.10;99.90
18317;DHT22;9284;52.298;21.164;2024-01-30T12:56:00;7.10;99.90
18317;DHT22;9284;52.298;21.164;2024-01-30T12:58:29;7.10;99.90
18317;DHT22;9284;52.298;21.164;2024-01-30T13:00:57;7.10;99.90
18317;DHT22;9284;52.298;21.164;2024-01-30T13:03:26;7.10;99.90
18317;DHT22;9284;52.298;21.164;2024-01-30T13:05:56;7.10;99.90
18317;DHT22;9284;52.298;21.164;2024-01-30T13:08:25;7.20;99.90
18317;DHT22;9284;52.298;21.164;2024-01-30T13:10:53;7.30;99.90
18317;DHT22;9284;52.298;21.164;2024-01-30T13:13:21;7.40;99.90
18317;DHT22;9284;52.298;21.164;2024-01-30T13:15:50;7.40;99.90
18317;DHT22;9284;52.298;21.164;2024-01-30T13:18:19;7.40;99.90
18317;DHT22;9284;52.298;21.164;2024-01-30T13:20:47;7.30;99.90
18317;DHT22;9284;52.298;21.164;2024-01-30T13:23:17;7.40;99.90
18317;DHT22;9284;52.298;21.164;2024-01-30T13:25:45;7.40;99.90
18317;DHT22;9284;52.298;21.164;2024-01-30T13:28:14;7.30;99.90
18317;DHT22;9284;52.298;21.164;2024-01-30T13:30:42;7.20;99.90
18317;DHT22;9284;52.298;21.164;2024-01-30T13:33:11;7.30;99.90
18317;DHT22;9284;52.298;21.164;2024-01-30T13:35:39;7.30;99.90
18317;DHT22;9284;52.298;21.164;2024-01-30T13:38:08;7.30;99.90
18317;DHT22;9284;52.298;21.164;2024-01-30T13:40:38;7.40;99.90
18317;DHT22;9284;52.298;21.164;2024-01-30T13:43:06;7.20;99.90
18317;DHT22;9284;52.298;21.164;2024-01-30T13:45:35;7.20;99.90
18317;DHT22;9284;52.298;21.164;2024-01-30T13:48:03;7.20;99.90
18317;DHT22;9284;52.298;21.164;2024-01-30T13:50:32;7.20;99.90
18317;DHT22;9284;52.298;21.164;2024-01-30T13:53:02;7.20;99.90
18317;DHT22;9284;52.298;21.164;2024-01-30T13:55:31;7.10;99.90
18317;DHT22;9284;52.298;21.164;2024-01-30T13:58:00;7.20;99.90
18317;DHT22;9284;52.298;21.164;2024-01-30T14:00:30;7.10;99.90
18317;DHT22;9284;52.298;21.164;2024-01-30T14:02:58;7.00;99.90
18317;DHT22;9284;52.298;21.164;2024-01-30T14:05:27;6.90;99.90
18317;DHT22;9284;52.298;21.164;2024-01-30T14:07:56;6.90;99.90
18317;DHT22;9284;52.298;21.164;2024-01-30T14:10:25;6.80;99.90
18317;DHT22;9284;52.298;21.164;2024-01-30T14:12:54;6.70;99.90
18317;DHT22;9284;52.298;21.164;2024-01-30T14:15:25;6.60;99.90
18317;DHT22;9284;52.298;21.164;2024-01-30T14:17:55;6.60;99.90
18317;DHT22;9284;52.298;21.164;2024-01-30T14:20:25;6.50;99.90
18317;DHT22;9284;52.298;21.164;2024-01-30T14:22:54;6.60;99.90
18317;DHT22;9284;52.298;21.164;2024-01-30T14:25:24;6.70;99.90
18317;DHT22;9284;52.298;21.164;2024-01-30T14:27:52;6.50;99.90
18317;DHT22;9284;52.298;21.164;2024-01-30T14:30:21;6.60;99.90
18317;DHT22;9284;52.298;21.164;2024-01-30T14:32:51;6.50;99.90
18317;DHT22;9284;52.298;21.164;2024-01-30T14:35:20;6.40;99.90
18317;DHT22;9284;52.298;21.164;2024-01-30T14:37:49;6.20;99.90
18317;DHT22;9284;52.298;21.164;2024-01-30T14:40:18;6.10;99.90
18317;DHT22;9284;52.298;21.164;2024-01-30T14:42:46;6.00;99.90
18317;DHT22;9284;52.298;21.164;2024-01-30T14:45:15;5.90;99.90
18317;DHT22;9284;52.298;21.164;2024-01-30T14:47:44;5.80;99.90
18317;DHT22;9284;52.298;21.164;2024-01-30T14:50:15;5.70;99.90
18317;DHT22;9284;52.298;21.164;2024-01-30T14:52:44;5.70;99.90
18317;DHT22;9284;52.298;21.164;2024-01-30T14:55:12;5.70;99.90
18317;DHT22;9284;52.298;21.164;2024-01-30T14:57:41;5.50;99.90
18317;DHT22;9284;52.298;21.164;2024-01-30T15:00:13;5.40;99.90
18317;DHT22;9284;52.298;21.164;2024-01-30T15:02:43;5.20;99.90
18317;DHT22;9284;52.298;21.164;2024-01-30T15:05:11;5.10;99.90
18317;DHT22;9284;52.298;21.164;2024-01-30T15:07:42;5.00;1.00
18317;DHT22;9284;52.298;21.164;2024-01-30T15:10:11;4.90;1.00
18317;DHT22;9284;52.298;21.164;2024-01-30T15:12:40;4.80;1.00
18317;DHT22;9284;52.298;21.164;2024-01-30T15:15:08;4.70;1.00
18317;DHT22;9284;52.298;21.164;2024-01-30T15:17:38;4.60;1.00
18317;DHT22;9284;52.298;21.164;2024-01-30T15:20:07;4.50;1.00
18317;DHT22;9284;52.298;21.164;2024-01-30T15:22:36;4.40;1.00
18317;DHT22;9284;52.298;21.164;2024-01-30T15:25:06;4.30;1.00
18317;DHT22;9284;52.298;21.164;2024-01-30T15:27:35;4.30;1.00
18317;DHT22;9284;52.298;21.164;2024-01-30T15:30:04;4.10;1.00
18317;DHT22;9284;52.298;21.164;2024-01-30T15:32:32;4.00;1.00
18317;DHT22;9284;52.298;21.164;2024-01-30T15:35:00;4.00;1.00
18317;DHT22;9284;52.298;21.164;2024-01-30T15:37:32;4.10;1.00
18317;DHT22;9284;52.298;21.164;2024-01-30T15:40:00;3.90;1.00
18317;DHT22;9284;52.298;21.164;2024-01-30T15:42:31;4.00;1.00
18317;DHT22;9284;52.298;21.164;2024-01-30T15:44:59;4.00;1.00
18317;DHT22;9284;52.298;21.164;2024-01-30T15:47:28;4.00;1.00
18317;DHT22;9284;52.298;21.164;2024-01-30T15:49:56;3.90;1.00
18317;DHT22;9284;52.298;21.164;2024-01-30T15:52:25;3.80;1.00
18317;DHT22;9284;52.298;21.164;2024-01-30T15:54:53;3.90;1.00
18317;DHT22;9284;52.298;21.164;2024-01-30T15:57:21;3.80;1.00